sensor_id;sensor_type;location;lat;lon;timestamp;temperature;humidity
25112;DHT22;13092;51.996;4.458;2022-12-15T00:00:01;-0.40;99.90
25112;DHT22;13092;51.996;4.458;2022-12-15T00:02:46;-0.30;99.90
25112;DHT22;13092;51.996;4.458;2022-12-15T00:05:32;-0.40;99.90
25112;DHT22;13092;51.996;4.458;2022-12-15T00:08:18;-0.30;99.90
25112;DHT22;13092;51.996;4.458;2022-12-15T00:11:04;-0.30;99.90
25112;DHT22;13092;51.996;4.458;2022-12-15T00:13:50;-0.40;99.90
25112;DHT22;13092;51.996;4.458;2022-12-15T00:16:36;-0.60;99.90
25112;DHT22;13092;51.996;4.458;2022-12-15T00:19:22;-0.60;99.90
25112;DHT22;13092;51.996;4.458;2022-12-15T00:22:07;-0.70;99.90
25112;DHT22;13092;51.996;4.458;2022-12-15T00:24:53;-0.70;99.90
25112;DHT22;13092;51.996;4.458;2022-12-15T00:27:38;-0.80;99.90
25112;DHT22;13092;51.996;4.458;2022-12-15T00:30:25;-0.70;99.90
25112;DHT22;13092;51.996;4.458;2022-12-15T00:33:15;-0.70;99.90
25112;DHT22;13092;51.996;4.458;2022-12-15T00:36:01;-0.70;99.90
25112;DHT22;13092;51.996;4.458;2022-12-15T00:38:46;-0.50;99.90
25112;DHT22;13092;51.996;4.458;2022-12-15T00:41:16;-0.70;99.90
25112;DHT22;13092;51.996;4.458;2022-12-15T00:43:45;-0.80;99.90
25112;DHT22;13092;51.996;4.458;2022-12-15T00:46:14;-0.70;99.90
25112;DHT22;13092;51.996;4.458;2022-12-15T00:49:00;-0.70;99.90
25112;DHT22;13092;51.996;4.458;2022-12-15T00:51:28;-0.60;99.90
25112;DHT22;13092;51.996;4.458;2022-12-15T00:54:14;-0.60;99.90
25112;DHT22;13092;51.996;4.458;2022-12-15T00:57:00;-0.60;99.90
25112;DHT22;13092;51.996;4.458;2022-12-15T00:59:45;-0.60;99.90
25112;DHT22;13092;51.996;4.458;2022-12-15T01:02:32;-0.60;99.90
25112;DHT22;13092;51.996;4.458;2022-12-15T01:05:17;-0.60;99.90
25112;DHT22;13092;51.996;4.458;2022-12-15T01:08:03;-0.70;99.90
25112;DHT22;13092;51.996;4.458;2022-12-15T01:10:48;-0.60;99.90
25112;DHT22;13092;51.996;4.458;2022-12-15T01:13:34;-0.60;99.90
25112;DHT22;13092;51.996;4.458;2022-12-15T01:16:19;-0.70;99.90
25112;DHT22;13092;51.996;4.458;2022-12-15T01:19:08;-0.70;99.90
25112;DHT22;13092;51.996;4.458;2022-12-15T01:21:54;-0.70;99.90
25112;DHT22;13092;51.996;4.458;2022-12-15T01:24:22;-0.70;99.90
25112;DHT22;13092;51.996;4.458;2022-12-15T01:26:50;-0.70;99.90
25112;DHT22;13092;51.996;4.458;2022-12-15T01:29:19;-0.60;99.90
25112;DHT22;13092;51.996;4.458;2022-12-15T01:31:47;-0.60;99.90
25112;DHT22;13092;51.996;4.458;2022-12-15T01:34:18;-0.60;99.90
25112;DHT22;13092;51.996;4.458;2022-12-15T01:36:48;-0.50;99.90
25112;DHT22;13092;51.996;4.458;2022-12-15T01:39:16;-0.50;99.90
25112;DHT22;13092;51.996;4.458;2022-12-15T01:41:44;-0.50;99.90
25112;DHT22;13092;51.996;4.458;2022-12-15T01:44:16;-0.50;99.90
25112;DHT22;13092;51.996;4.458;2022-12-15T01:46:46;-0.60;99.90
25112;DHT22;13092;51.996;4.458;2022-12-15T01:49:19;-0.50;99.90
25112;DHT22;13092;51.996;4.458;2022-12-15T01:51:51;-0.60;99.90
25112;DHT22;13092;51.996;4.458;2022-12-15T01:54:25;-0.60;99.90
25112;DHT22;13092;51.996;4.458;2022-12-15T01:56:57;-0.60;99.90
25112;DHT22;13092;51.996;4.458;2022-12-15T01:59:30;-0.50;99.90
25112;DHT22;13092;51.996;4.458;2022-12-15T02:02:01;-0.60;99.90
25112;DHT22;13092;51.996;4.458;2022-12-15T02:04:32;-0.60;99.90
25112;DHT22;13092;51.996;4.458;2022-12-15T02:07:01;-0.70;99.90
25112;DHT22;13092;51.996;4.458;2022-12-15T02:09:29;-0.70;99.90
25112;DHT22;13092;51.996;4.458;2022-12-15T02:12:00;-0.70;99.90
25112;DHT22;13092;51.996;4.458;2022-12-15T02:14:46;-0.70;99.90
25112;DHT22;13092;51.996;4.458;2022-12-15T02:17:29;-0.70;99.90
25112;DHT22;13092;51.996;4.458;2022-12-15T02:20:34;-0.70;99.90
25112;DHT22;13092;51.996;4.458;2022-12-15T02:23:38;-0.80;99.90
25112;DHT22;13092;51.996;4.458;2022-12-15T02:29:30;-0.80;99.90
25112;DHT22;13092;51.996;4.458;2022-12-15T02:32:08;-0.90;99.90
25112;DHT22;13092;51.996;4.458;2022-12-15T02:34:40;-1.00;99.90
25112;DHT22;13092;51.996;4.458;2022-12-15T02:37:14;-1.00;99.90
25112;DHT22;13092;51.996;4.458;2022-12-15T02:39:44;-1.10;99.90
25112;DHT22;13092;51.996;4.458;2022-12-15T02:42:13;-1.10;99.90
25112;DHT22;13092;51.996;4.458;2022-12-15T02:44:44;-1.10;99.90
25112;DHT22;13092;51.996;4.458;2022-12-15T02:47:30;-1.10;99.90
25112;DHT22;13092;51.996;4.458;2022-12-15T02:50:15;-1.10;99.90
25112;DHT22;13092;51.996;4.458;2022-12-15T02:52:54;-1.00;99.90
25112;DHT22;13092;51.996;4.458;2022-12-15T02:55:35;-1.00;99.90
25112;DHT22;13092;51.996;4.458;2022-12-15T02:58:09;-1.10;99.90
25112;DHT22;13092;51.996;4.458;2022-12-15T03:00:41;-1.00;99.90
25112;DHT22;13092;51.996;4.458;2022-12-15T03:03:12;-1.00;99.90
25112;DHT22;13092;51.996;4.458;2022-12-15T03:05:46;-1.00;99.90
25112;DHT22;13092;51.996;4.458;2022-12-15T03:08:15;-1.00;99.90
25112;DHT22;13092;51.996;4.458;2022-12-15T03:10:43;-0.90;99.90
25112;DHT22;13092;51.996;4.458;2022-12-15T03:13:11;-1.00;99.90
25112;DHT22;13092;51.996;4.458;2022-12-15T03:15:40;-1.00;99.90
25112;DHT22;13092;51.996;4.458;2022-12-15T03:18:08;-1.00;99.90
25112;DHT22;13092;51.996;4.458;2022-12-15T03:20:38;-1.00;99.90
25112;DHT22;13092;51.996;4.458;2022-12-15T03:23:06;-1.00;99.90
25112;DHT22;13092;51.996;4.458;2022-12-15T03:25:34;-1.00;99.90
25112;DHT22;13092;51.996;4.458;2022-12-15T03:28:03;-1.10;99.90
25112;DHT22;13092;51.996;4.458;2022-12-15T03:30:31;-1.10;99.90
25112;DHT22;13092;51.996;4.458;2022-12-15T03:33:02;-1.10;99.90
25112;DHT22;13092;51.996;4.458;2022-12-15T03:35:30;-1.10;99.90
25112;DHT22;13092;51.996;4.458;2022-12-15T03:38:00;-1.20;99.90
25112;DHT22;13092;51.996;4.458;2022-12-15T03:40:28;-1.20;99.90
25112;DHT22;13092;51.996;4.458;2022-12-15T03:42:56;-1.10;99.90
25112;DHT22;13092;51.996;4.458;2022-12-15T03:45:26;-1.20;99.90
25112;DHT22;13092;51.996;4.458;2022-12-15T03:47:55;-1.20;99.90
25112;DHT22;13092;51.996;4.458;2022-12-15T03:50:25;-1.20;99.90
25112;DHT22;13092;51.996;4.458;2022-12-15T03:52:55;-1.10;99.90
25112;DHT22;13092;51.996;4.458;2022-12-15T03:55:26;-1.10;99.90
25112;DHT22;13092;51.996;4.458;2022-12-15T03:57:55;-1.10;99.90
25112;DHT22;13092;51.996;4.458;2022-12-15T04:00:25;-1.10;99.90
25112;DHT22;13092;51.996;4.458;2022-12-15T04:02:54;-1.10;99.90
25112;DHT22;13092;51.996;4.458;2022-12-15T04:05:24;-1.10;99.90
25112;DHT22;13092;51.996;4.458;2022-12-15T04:07:53;-1.10;99.90
25112;DHT22;13092;51.996;4.458;2022-12-15T04:10:22;-1.10;99.90
25112;DHT22;13092;51.996;4.458;2022-12-15T04:13:01;-1.10;99.90
25112;DHT22;13092;51.996;4.458;2022-12-15T04:15:30;-1.10;99.90
25112;DHT22;13092;51.996;4.458;2022-12-15T04:18:00;-1.10;99.90
25112;DHT22;13092;51.996;4.458;2022-12-15T04:20:28;-1.10;99.90
25112;DHT22;13092;51.996;4.458;2022-12-15T04:22:56;-1.10;99.90
25112;DHT22;13092;51.996;4.458;2022-12-15T04:25:25;-1.20;99.90
25112;DHT22;13092;51.996;4.458;2022-12-15T04:28:12;-1.20;99.90
25112;DHT22;13092;51.996;4.458;2022-12-15T04:31:01;-1.20;99.90
25112;DHT22;13092;51.996;4.458;2022-12-15T04:33:52;-1.20;99.90
25112;DHT22;13092;51.996;4.458;2022-12-15T04:36:39;-1.20;99.90
25112;DHT22;13092;51.996;4.458;2022-12-15T04:39:26;-1.20;99.90
25112;DHT22;13092;51.996;4.458;2022-12-15T04:42:12;-1.20;99.90
25112;DHT22;13092;51.996;4.458;2022-12-15T04:45:01;-1.20;99.90
25112;DHT22;13092;51.996;4.458;2022-12-15T04:47:47;-1.20;99.90
25112;DHT22;13092;51.996;4.458;2022-12-15T04:50:32;-1.20;99.90
25112;DHT22;13092;51.996;4.458;2022-12-15T04:53:18;-1.20;99.90
25112;DHT22;13092;51.996;4.458;2022-12-15T04:56:07;-1.20;99.90
25112;DHT22;13092;51.996;4.458;2022-12-15T04:58:53;-1.20;99.90
25112;DHT22;13092;51.996;4.458;2022-12-15T05:01:40;-1.20;99.90
25112;DHT22;13092;51.996;4.458;2022-12-15T05:04:28;-1.30;99.90
25112;DHT22;13092;51.996;4.458;2022-12-15T05:07:14;-1.20;99.90
25112;DHT22;13092;51.996;4.458;2022-12-15T05:10:01;-1.20;99.90
25112;DHT22;13092;51.996;4.458;2022-12-15T05:12:47;-1.30;99.90
25112;DHT22;13092;51.996;4.458;2022-12-15T05:15:32;-1.30;99.90
25112;DHT22;13092;51.996;4.458;2022-12-15T05:18:19;-1.30;99.90
25112;DHT22;13092;51.996;4.458;2022-12-15T05:21:05;-1.30;99.90
25112;DHT22;13092;51.996;4.458;2022-12-15T05:23:51;-1.20;99.90
25112;DHT22;13092;51.996;4.458;2022-12-15T05:26:37;-1.30;99.90
25112;DHT22;13092;51.996;4.458;2022-12-15T05:29:22;-1.20;99.90
25112;DHT22;13092;51.996;4.458;2022-12-15T05:32:08;-1.30;99.90
25112;DHT22;13092;51.996;4.458;2022-12-15T05:34:38;-1.30;99.90
25112;DHT22;13092;51.996;4.458;2022-12-15T05:37:07;-1.30;99.90
25112;DHT22;13092;51.996;4.458;2022-12-15T05:39:35;-1.30;99.90
25112;DHT22;13092;51.996;4.458;2022-12-15T05:42:03;-1.30;99.90
25112;DHT22;13092;51.996;4.458;2022-12-15T05:44:31;-1.30;99.90
25112;DHT22;13092;51.996;4.458;2022-12-15T05:46:59;-1.30;99.90
25112;DHT22;13092;51.996;4.458;2022-12-15T05:49:27;-1.40;99.90
25112;DHT22;13092;51.996;4.458;2022-12-15T05:51:58;-1.30;99.90
25112;DHT22;13092;51.996;4.458;2022-12-15T05:54:26;-1.30;99.90
25112;DHT22;13092;51.996;4.458;2022-12-15T05:56:54;-1.30;99.90
25112;DHT22;13092;51.996;4.458;2022-12-15T05:59:22;-1.30;99.90
25112;DHT22;13092;51.996;4.458;2022-12-15T06:01:51;-1.20;99.90
25112;DHT22;13092;51.996;4.458;2022-12-15T06:04:19;-1.20;99.90
25112;DHT22;13092;51.996;4.458;2022-12-15T06:06:47;-1.20;99.90
25112;DHT22;13092;51.996;4.458;2022-12-15T06:09:17;-1.20;99.90
25112;DHT22;13092;51.996;4.458;2022-12-15T06:11:45;-1.10;99.90
25112;DHT22;13092;51.996;4.458;2022-12-15T06:14:13;-1.10;99.90
25112;DHT22;13092;51.996;4.458;2022-12-15T06:16:41;-1.20;99.90
25112;DHT22;13092;51.996;4.458;2022-12-15T06:19:16;-1.20;99.90
25112;DHT22;13092;51.996;4.458;2022-12-15T06:21:44;-1.20;99.90
25112;DHT22;13092;51.996;4.458;2022-12-15T06:24:12;-1.10;99.90
25112;DHT22;13092;51.996;4.458;2022-12-15T06:26:42;-1.10;99.90
25112;DHT22;13092;51.996;4.458;2022-12-15T06:29:11;-1.10;99.90
25112;DHT22;13092;51.996;4.458;2022-12-15T06:31:40;-1.10;99.90
25112;DHT22;13092;51.996;4.458;2022-12-15T06:34:11;-1.10;99.90
25112;DHT22;13092;51.996;4.458;2022-12-15T06:36:40;-1.00;99.90
25112;DHT22;13092;51.996;4.458;2022-12-15T06:39:11;-1.00;99.90
25112;DHT22;13092;51.996;4.458;2022-12-15T06:41:41;-1.00;99.90
25112;DHT22;13092;51.996;4.458;2022-12-15T06:44:12;-1.10;99.90
25112;DHT22;13092;51.996;4.458;2022-12-15T06:46:40;-1.10;99.90
25112;DHT22;13092;51.996;4.458;2022-12-15T06:49:09;-1.00;99.90
25112;DHT22;13092;51.996;4.458;2022-12-15T06:51:37;-1.00;99.90
25112;DHT22;13092;51.996;4.458;2022-12-15T06:54:07;-1.00;99.90
25112;DHT22;13092;51.996;4.458;2022-12-15T06:56:37;-1.00;99.90
25112;DHT22;13092;51.996;4.458;2022-12-15T06:59:08;-0.90;99.90
25112;DHT22;13092;51.996;4.458;2022-12-15T07:01:37;-1.00;99.90
25112;DHT22;13092;51.996;4.458;2022-12-15T07:04:05;-1.00;99.90
25112;DHT22;13092;51.996;4.458;2022-12-15T07:06:34;-1.00;99.90
25112;DHT22;13092;51.996;4.458;2022-12-15T07:09:04;-1.00;99.90
25112;DHT22;13092;51.996;4.458;2022-12-15T07:11:36;-1.00;99.90
25112;DHT22;13092;51.996;4.458;2022-12-15T07:14:04;-1.00;99.90
25112;DHT22;13092;51.996;4.458;2022-12-15T07:16:34;-1.00;99.90
25112;DHT22;13092;51.996;4.458;2022-12-15T07:19:02;-1.00;99.90
25112;DHT22;13092;51.996;4.458;2022-12-15T07:21:31;-1.00;99.90
25112;DHT22;13092;51.996;4.458;2022-12-15T07:23:59;-1.00;99.90
25112;DHT22;13092;51.996;4.458;2022-12-15T07:26:28;-1.00;99.90
25112;DHT22;13092;51.996;4.458;2022-12-15T07:28:57;-1.00;99.90
25112;DHT22;13092;51.996;4.458;2022-12-15T07:31:25;-1.00;99.90
25112;DHT22;13092;51.996;4.458;2022-12-15T07:33:56;-0.80;99.90
25112;DHT22;13092;51.996;4.458;2022-12-15T07:36:24;-1.00;99.90
25112;DHT22;13092;51.996;4.458;2022-12-15T07:38:56;-1.00;99.90
25112;DHT22;13092;51.996;4.458;2022-12-15T07:41:26;-1.00;99.90
25112;DHT22;13092;51.996;4.458;2022-12-15T07:43:56;-1.00;99.90
25112;DHT22;13092;51.996;4.458;2022-12-15T07:46:25;-1.10;99.90
25112;DHT22;13092;51.996;4.458;2022-12-15T07:48:56;-1.10;99.90
25112;DHT22;13092;51.996;4.458;2022-12-15T07:51:24;-1.10;99.90
25112;DHT22;13092;51.996;4.458;2022-12-15T07:53:53;-1.10;99.90
25112;DHT22;13092;51.996;4.458;2022-12-15T07:56:21;-1.10;99.90
25112;DHT22;13092;51.996;4.458;2022-12-15T07:58:49;-0.90;99.90
25112;DHT22;13092;51.996;4.458;2022-12-15T08:01:18;-0.90;99.90
25112;DHT22;13092;51.996;4.458;2022-12-15T08:03:47;-1.00;99.90
25112;DHT22;13092;51.996;4.458;2022-12-15T08:06:17;-1.00;99.90
25112;DHT22;13092;51.996;4.458;2022-12-15T08:08:46;-0.90;99.90
25112;DHT22;13092;51.996;4.458;2022-12-15T08:11:18;-0.90;99.90
25112;DHT22;13092;51.996;4.458;2022-12-15T08:13:47;-0.80;99.90
25112;DHT22;13092;51.996;4.458;2022-12-15T08:16:29;-0.80;99.90
25112;DHT22;13092;51.996;4.458;2022-12-15T08:18:57;-0.80;99.90
25112;DHT22;13092;51.996;4.458;2022-12-15T08:21:27;-0.80;99.90
25112;DHT22;13092;51.996;4.458;2022-12-15T08:23:57;-0.50;99.90
25112;DHT22;13092;51.996;4.458;2022-12-15T08:26:27;-0.50;99.90
25112;DHT22;13092;51.996;4.458;2022-12-15T08:29:00;-0.60;99.90
25112;DHT22;13092;51.996;4.458;2022-12-15T08:31:49;-0.50;99.90
25112;DHT22;13092;51.996;4.458;2022-12-15T08:34:18;-0.50;99.90
25112;DHT22;13092;51.996;4.458;2022-12-15T08:36:47;-0.50;99.90
25112;DHT22;13092;51.996;4.458;2022-12-15T08:39:15;-0.40;99.90
25112;DHT22;13092;51.996;4.458;2022-12-15T08:41:44;-0.40;99.90
25112;DHT22;13092;51.996;4.458;2022-12-15T08:44:12;-0.30;99.90
25112;DHT22;13092;51.996;4.458;2022-12-15T08:46:42;-0.30;99.90
25112;DHT22;13092;51.996;4.458;2022-12-15T08:49:10;-0.20;99.90
25112;DHT22;13092;51.996;4.458;2022-12-15T08:51:47;-0.10;99.90
25112;DHT22;13092;51.996;4.458;2022-12-15T08:54:16;-0.20;99.90
25112;DHT22;13092;51.996;4.458;2022-12-15T08:56:45;-0.10;99.90
25112;DHT22;13092;51.996;4.458;2022-12-15T08:59:13;-0.10;99.90
25112;DHT22;13092;51.996;4.458;2022-12-15T09:01:42;0.00;99.90
25112;DHT22;13092;51.996;4.458;2022-12-15T09:04:10;0.00;99.90
25112;DHT22;13092;51.996;4.458;2022-12-15T09:06:38;0.10;99.90
25112;DHT22;13092;51.996;4.458;2022-12-15T09:09:10;0.10;99.90
25112;DHT22;13092;51.996;4.458;2022-12-15T09:11:39;0.10;99.90
25112;DHT22;13092;51.996;4.458;2022-12-15T09:14:07;0.20;99.90
25112;DHT22;13092;51.996;4.458;2022-12-15T09:16:35;0.40;99.90
25112;DHT22;13092;51.996;4.458;2022-12-15T09:19:04;0.30;99.90
25112;DHT22;13092;51.996;4.458;2022-12-15T09:21:34;0.40;99.90
25112;DHT22;13092;51.996;4.458;2022-12-15T09:24:03;0.50;99.90
25112;DHT22;13092;51.996;4.458;2022-12-15T09:26:33;0.60;99.90
25112;DHT22;13092;51.996;4.458;2022-12-15T09:29:02;0.80;99.90
25112;DHT22;13092;51.996;4.458;2022-12-15T09:31:36;0.90;99.90
25112;DHT22;13092;51.996;4.458;2022-12-15T09:34:04;1.00;99.90
25112;DHT22;13092;51.996;4.458;2022-12-15T09:36:33;1.00;99.90
25112;DHT22;13092;51.996;4.458;2022-12-15T09:39:02;1.10;99.90
25112;DHT22;13092;51.996;4.458;2022-12-15T09:41:35;1.20;99.90
25112;DHT22;13092;51.996;4.458;2022-12-15T09:44:08;1.20;99.90
25112;DHT22;13092;51.996;4.458;2022-12-15T09:46:46;1.30;99.90
25112;DHT22;13092;51.996;4.458;2022-12-15T09:49:24;1.40;99.90
25112;DHT22;13092;51.996;4.458;2022-12-15T09:52:04;1.50;99.90
25112;DHT22;13092;51.996;4.458;2022-12-15T09:54:37;1.50;99.90
25112;DHT22;13092;51.996;4.458;2022-12-15T09:57:13;1.60;99.90
25112;DHT22;13092;51.996;4.458;2022-12-15T10:00:01;1.70;99.90
25112;DHT22;13092;51.996;4.458;2022-12-15T10:05:58;1.80;99.90
25112;DHT22;13092;51.996;4.458;2022-12-15T10:08:51;1.90;99.90
25112;DHT22;13092;51.996;4.458;2022-12-15T10:11:30;2.00;99.90
25112;DHT22;13092;51.996;4.458;2022-12-15T10:14:10;2.10;99.90
25112;DHT22;13092;51.996;4.458;2022-12-15T10:16:49;2.10;99.90
25112;DHT22;13092;51.996;4.458;2022-12-15T10:19:25;2.20;99.90
25112;DHT22;13092;51.996;4.458;2022-12-15T10:21:57;2.20;99.90
25112;DHT22;13092;51.996;4.458;2022-12-15T10:24:28;2.30;99.90
25112;DHT22;13092;51.996;4.458;2022-12-15T10:27:30;2.40;99.90
25112;DHT22;13092;51.996;4.458;2022-12-15T10:30:06;2.40;99.90
25112;DHT22;13092;51.996;4.458;2022-12-15T10:32:43;2.50;99.90
25112;DHT22;13092;51.996;4.458;2022-12-15T10:35:20;2.60;99.90
25112;DHT22;13092;51.996;4.458;2022-12-15T10:37:48;2.80;99.90
25112;DHT22;13092;51.996;4.458;2022-12-15T10:40:21;2.80;99.90
25112;DHT22;13092;51.996;4.458;2022-12-15T10:43:12;2.80;99.90
25112;DHT22;13092;51.996;4.458;2022-12-15T10:45:42;2.90;99.90
25112;DHT22;13092;51.996;4.458;2022-12-15T10:48:18;3.00;99.90
25112;DHT22;13092;51.996;4.458;2022-12-15T10:50:46;3.00;99.90
25112;DHT22;13092;51.996;4.458;2022-12-15T10:53:32;3.10;99.90
25112;DHT22;13092;51.996;4.458;2022-12-15T10:56:05;3.10;99.90
25112;DHT22;13092;51.996;4.458;2022-12-15T10:58:45;3.20;99.90
25112;DHT22;13092;51.996;4.458;2022-12-15T11:01:19;3.30;99.90
25112;DHT22;13092;51.996;4.458;2022-12-15T11:03:50;3.30;99.90
25112;DHT22;13092;51.996;4.458;2022-12-15T11:06:26;3.40;99.90
25112;DHT22;13092;51.996;4.458;2022-12-15T11:08:56;3.40;99.90
25112;DHT22;13092;51.996;4.458;2022-12-15T11:11:27;3.50;99.90
25112;DHT22;13092;51.996;4.458;2022-12-15T11:14:18;3.50;99.90
25112;DHT22;13092;51.996;4.458;2022-12-15T11:16:53;3.60;99.90
25112;DHT22;13092;51.996;4.458;2022-12-15T11:19:33;3.70;99.90
25112;DHT22;13092;51.996;4.458;2022-12-15T11:22:08;3.70;99.90
25112;DHT22;13092;51.996;4.458;2022-12-15T11:24:44;3.80;99.90
25112;DHT22;13092;51.996;4.458;2022-12-15T11:27:20;3.90;99.90
25112;DHT22;13092;51.996;4.458;2022-12-15T11:29:58;3.80;99.90
25112;DHT22;13092;51.996;4.458;2022-12-15T11:32:32;4.00;99.90
25112;DHT22;13092;51.996;4.458;2022-12-15T11:35:01;4.00;99.90
25112;DHT22;13092;51.996;4.458;2022-12-15T11:37:37;4.10;99.90
25112;DHT22;13092;51.996;4.458;2022-12-15T11:40:25;4.30;99.90
25112;DHT22;13092;51.996;4.458;2022-12-15T11:46:00;4.20;99.90
25112;DHT22;13092;51.996;4.458;2022-12-15T11:48:37;4.20;99.90
25112;DHT22;13092;51.996;4.458;2022-12-15T11:51:14;4.20;99.90
25112;DHT22;13092;51.996;4.458;2022-12-15T11:54:09;4.20;99.90
25112;DHT22;13092;51.996;4.458;2022-12-15T11:56:45;4.20;99.90
25112;DHT22;13092;51.996;4.458;2022-12-15T11:59:31;4.20;99.90
25112;DHT22;13092;51.996;4.458;2022-12-15T12:02:23;4.30;99.90
25112;DHT22;13092;51.996;4.458;2022-12-15T12:05:04;4.30;99.90
25112;DHT22;13092;51.996;4.458;2022-12-15T12:07:43;4.30;99.90
25112;DHT22;13092;51.996;4.458;2022-12-15T12:10:27;4.40;99.90
25112;DHT22;13092;51.996;4.458;2022-12-15T12:13:04;4.30;99.90
25112;DHT22;13092;51.996;4.458;2022-12-15T12:15:44;4.50;99.90
25112;DHT22;13092;51.996;4.458;2022-12-15T12:18:22;4.60;99.90
25112;DHT22;13092;51.996;4.458;2022-12-15T12:20:59;4.70;99.90
25112;DHT22;13092;51.996;4.458;2022-12-15T12:23:35;4.70;99.90
25112;DHT22;13092;51.996;4.458;2022-12-15T12:26:12;4.80;99.90
25112;DHT22;13092;51.996;4.458;2022-12-15T12:28:46;4.90;99.90
25112;DHT22;13092;51.996;4.458;2022-12-15T12:31:21;4.90;99.90
25112;DHT22;13092;51.996;4.458;2022-12-15T12:33:54;5.00;99.90
25112;DHT22;13092;51.996;4.458;2022-12-15T12:36:26;5.00;99.90
25112;DHT22;13092;51.996;4.458;2022-12-15T12:38:55;5.20;99.90
25112;DHT22;13092;51.996;4.458;2022-12-15T12:41:31;5.10;99.90
25112;DHT22;13092;51.996;4.458;2022-12-15T12:44:08;5.20;99.90
25112;DHT22;13092;51.996;4.458;2022-12-15T12:46:41;5.40;99.90
25112;DHT22;13092;51.996;4.458;2022-12-15T12:49:19;5.30;99.90
25112;DHT22;13092;51.996;4.458;2022-12-15T12:51:55;5.30;99.90
25112;DHT22;13092;51.996;4.458;2022-12-15T12:54:43;5.30;99.90
25112;DHT22;13092;51.996;4.458;2022-12-15T12:57:36;5.40;99.90
25112;DHT22;13092;51.996;4.458;2022-12-15T13:00:18;5.40;99.90
25112;DHT22;13092;51.996;4.458;2022-12-15T13:05:47;5.40;99.90
25112;DHT22;13092;51.996;4.458;2022-12-15T13:14:51;5.50;99.90
25112;DHT22;13092;51.996;4.458;2022-12-15T13:17:28;5.60;99.90
25112;DHT22;13092;51.996;4.458;2022-12-15T13:22:49;5.60;99.90
25112;DHT22;13092;51.996;4.458;2022-12-15T13:25:40;5.60;99.90
25112;DHT22;13092;51.996;4.458;2022-12-15T13:28:37;5.60;99.90
25112;DHT22;13092;51.996;4.458;2022-12-15T13:31:24;5.70;99.90
25112;DHT22;13092;51.996;4.458;2022-12-15T13:34:16;5.70;99.90
25112;DHT22;13092;51.996;4.458;2022-12-15T13:36:53;5.70;99.90
25112;DHT22;13092;51.996;4.458;2022-12-15T13:42:33;5.80;99.90
25112;DHT22;13092;51.996;4.458;2022-12-15T13:45:31;5.80;99.90
25112;DHT22;13092;51.996;4.458;2022-12-15T13:48:12;5.80;99.90
25112;DHT22;13092;51.996;4.458;2022-12-15T13:50:47;5.80;99.90
25112;DHT22;13092;51.996;4.458;2022-12-15T13:53:20;5.70;99.90
25112;DHT22;13092;51.996;4.458;2022-12-15T13:55:59;5.60;99.90
25112;DHT22;13092;51.996;4.458;2022-12-15T13:58:36;5.70;99.90
25112;DHT22;13092;51.996;4.458;2022-12-15T14:01:19;5.80;99.90
25112;DHT22;13092;51.996;4.458;2022-12-15T14:04:12;5.70;99.90
25112;DHT22;13092;51.996;4.458;2022-12-15T14:06:46;5.70;99.90
25112;DHT22;13092;51.996;4.458;2022-12-15T14:09:20;5.70;99.90
25112;DHT22;13092;51.996;4.458;2022-12-15T14:11:51;5.70;99.90
25112;DHT22;13092;51.996;4.458;2022-12-15T14:14:23;5.60;99.90
25112;DHT22;13092;51.996;4.458;2022-12-15T14:16:55;5.60;99.90
25112;DHT22;13092;51.996;4.458;2022-12-15T14:19:38;5.60;99.90
25112;DHT22;13092;51.996;4.458;2022-12-15T14:22:19;5.60;99.90
25112;DHT22;13092;51.996;4.458;2022-12-15T14:25:00;5.60;99.90
25112;DHT22;13092;51.996;4.458;2022-12-15T14:27:31;5.50;99.90
25112;DHT22;13092;51.996;4.458;2022-12-15T14:30:19;5.60;99.90
25112;DHT22;13092;51.996;4.458;2022-12-15T14:32:59;5.60;99.90
25112;DHT22;13092;51.996;4.458;2022-12-15T14:35:33;5.60;99.90
25112;DHT22;13092;51.996;4.458;2022-12-15T14:38:05;5.70;99.90
25112;DHT22;13092;51.996;4.458;2022-12-15T14:40:36;5.60;99.90
25112;DHT22;13092;51.996;4.458;2022-12-15T14:43:10;5.60;99.90
25112;DHT22;13092;51.996;4.458;2022-12-15T14:45:42;5.60;99.90
25112;DHT22;13092;51.996;4.458;2022-12-15T14:48:20;5.50;99.90
25112;DHT22;13092;51.996;4.458;2022-12-15T14:51:11;5.60;99.90
25112;DHT22;13092;51.996;4.458;2022-12-15T14:53:42;5.60;99.90
25112;DHT22;13092;51.996;4.458;2022-12-15T14:56:25;5.60;99.90
25112;DHT22;13092;51.996;4.458;2022-12-15T14:58:59;5.50;99.90
25112;DHT22;13092;51.996;4.458;2022-12-15T15:01:34;5.50;99.90
25112;DHT22;13092;51.996;4.458;2022-12-15T15:04:05;5.40;99.90
25112;DHT22;13092;51.996;4.458;2022-12-15T15:06:37;5.40;99.90
25112;DHT22;13092;51.996;4.458;2022-12-15T15:09:22;5.40;99.90
25112;DHT22;13092;51.996;4.458;2022-12-15T15:12:00;5.30;99.90
25112;DHT22;13092;51.996;4.458;2022-12-15T15:14:31;5.20;99.90
25112;DHT22;13092;51.996;4.458;2022-12-15T15:17:04;5.20;99.90
25112;DHT22;13092;51.996;4.458;2022-12-15T15:19:36;5.10;99.90
25112;DHT22;13092;51.996;4.458;2022-12-15T15:22:23;5.00;99.90
25112;DHT22;13092;51.996;4.458;2022-12-15T15:24:53;5.00;99.90
25112;DHT22;13092;51.996;4.458;2022-12-15T15:27:34;5.00;99.90
25112;DHT22;13092;51.996;4.458;2022-12-15T15:30:20;4.90;99.90
25112;DHT22;13092;51.996;4.458;2022-12-15T15:32:54;4.80;99.90
25112;DHT22;13092;51.996;4.458;2022-12-15T15:35:28;4.80;99.90
25112;DHT22;13092;51.996;4.458;2022-12-15T15:38:02;4.80;99.90
25112;DHT22;13092;51.996;4.458;2022-12-15T15:40:35;4.70;99.90
25112;DHT22;13092;51.996;4.458;2022-12-15T15:43:09;4.70;99.90
25112;DHT22;13092;51.996;4.458;2022-12-15T15:45:38;4.80;99.90
25112;DHT22;13092;51.996;4.458;2022-12-15T15:48:09;4.60;99.90
25112;DHT22;13092;51.996;4.458;2022-12-15T15:50:40;4.50;99.90
25112;DHT22;13092;51.996;4.458;2022-12-15T15:53:15;4.40;99.90
25112;DHT22;13092;51.996;4.458;2022-12-15T15:55:44;4.40;99.90
25112;DHT22;13092;51.996;4.458;2022-12-15T15:58:12;4.30;99.90
25112;DHT22;13092;51.996;4.458;2022-12-15T16:00:41;4.40;99.90
25112;DHT22;13092;51.996;4.458;2022-12-15T16:03:09;4.20;99.90
25112;DHT22;13092;51.996;4.458;2022-12-15T16:05:38;4.10;99.90
25112;DHT22;13092;51.996;4.458;2022-12-15T16:08:12;4.10;99.90
25112;DHT22;13092;51.996;4.458;2022-12-15T16:10:43;4.10;99.90
25112;DHT22;13092;51.996;4.458;2022-12-15T16:13:16;4.00;99.90
25112;DHT22;13092;51.996;4.458;2022-12-15T16:15:51;4.00;99.90
25112;DHT22;13092;51.996;4.458;2022-12-15T16:18:20;3.90;99.90
25112;DHT22;13092;51.996;4.458;2022-12-15T16:20:50;3.90;99.90
25112;DHT22;13092;51.996;4.458;2022-12-15T16:23:21;3.80;99.90
25112;DHT22;13092;51.996;4.458;2022-12-15T16:25:53;3.80;99.90
25112;DHT22;13092;51.996;4.458;2022-12-15T16:28:24;3.70;99.90
25112;DHT22;13092;51.996;4.458;2022-12-15T16:30:52;3.70;99.90
25112;DHT22;13092;51.996;4.458;2022-12-15T16:33:20;3.70;99.90
25112;DHT22;13092;51.996;4.458;2022-12-15T16:35:49;3.70;99.90
25112;DHT22;13092;51.996;4.458;2022-12-15T16:38:22;3.60;99.90
25112;DHT22;13092;51.996;4.458;2022-12-15T16:40:52;3.60;99.90
25112;DHT22;13092;51.996;4.458;2022-12-15T16:43:23;3.50;99.90
25112;DHT22;13092;51.996;4.458;2022-12-15T16:45:58;3.50;99.90
25112;DHT22;13092;51.996;4.458;2022-12-15T16:48:27;3.40;99.90
25112;DHT22;13092;51.996;4.458;2022-12-15T16:50:57;3.40;99.90